createdAt,value
2022-08-12T00:02:03.460Z,2.17
2022-08-12T00:07:27.611Z,2.05
2022-08-12T00:12:48.594Z,2.25
2022-08-12T00:18:11.088Z,2.17
2022-08-12T00:23:31.868Z,2.17
2022-08-12T00:28:53.804Z,2.00
2022-08-12T00:34:15.177Z,2.17
2022-08-12T00:39:38.851Z,2.40
2022-08-12T00:44:45.429Z,2.20
2022-08-12T00:49:51.185Z,2.13
2022-08-12T00:54:58.514Z,2.30
2022-08-12T01:00:13.853Z,2.20
2022-08-12T01:05:37.992Z,2.00
2022-08-12T01:11:08.783Z,1.92
2022-08-12T01:16:12.019Z,2.15
2022-08-12T01:21:45.509Z,1.98
2022-08-12T01:26:49.273Z,2.00
2022-08-12T01:31:52.469Z,2.05
2022-08-12T01:37:00.008Z,2.50
2022-08-12T01:42:07.308Z,1.80
2022-08-12T01:47:50.444Z,2.15
2022-08-12T01:53:00.738Z,2.00
2022-08-12T01:58:54.943Z,1.93
2022-08-12T02:04:21.377Z,1.98
2022-08-12T02:09:55.036Z,2.40
2022-08-12T02:15:29.351Z,2.20
2022-08-12T02:20:53.018Z,2.20
2022-08-12T02:26:07.937Z,2.35
2022-08-12T02:31:11.559Z,2.25
2022-08-12T02:36:16.277Z,2.13
2022-08-12T02:41:21.564Z,2.65
2022-08-12T02:46:34.268Z,2.08
2022-08-12T02:51:42.241Z,2.13
2022-08-12T02:56:50.410Z,2.58
2022-08-12T03:02:03.482Z,2.55
2022-08-12T03:07:17.831Z,2.40
2022-08-12T03:12:21.203Z,1.98
2022-08-12T03:17:46.872Z,2.38
2022-08-12T03:23:28.606Z,2.72
2022-08-12T03:28:53.373Z,2.38
2022-08-12T03:34:07.842Z,2.35
2022-08-12T03:39:35.538Z,2.40
2022-08-12T03:45:12.383Z,2.88
2022-08-12T03:50:33.407Z,2.50
2022-08-12T03:55:54.664Z,3.00
2022-08-12T04:00:58.581Z,2.65
2022-08-12T04:06:00.728Z,2.85
2022-08-12T04:11:21.887Z,2.38
2022-08-12T04:16:23.991Z,2.50
2022-08-12T04:21:26.070Z,2.70
2022-08-12T04:26:31.092Z,3.47
2022-08-12T04:31:40.209Z,2.80
2022-08-12T04:36:44.309Z,3.13
2022-08-12T04:41:58.451Z,2.70
2022-08-12T04:47:00.884Z,2.80
2022-08-12T04:52:03.552Z,3.35
2022-08-12T04:57:06.192Z,3.10
2022-08-12T05:02:09.606Z,3.08
2022-08-12T05:07:20.401Z,2.80
2022-08-12T05:12:23.576Z,2.83
2022-08-12T05:17:28.138Z,3.00
2022-08-12T05:22:30.939Z,2.85
2022-08-12T05:27:40.004Z,2.95
2022-08-12T05:33:00.180Z,3.50
2022-08-12T05:38:22.753Z,3.45
2022-08-12T05:43:25.151Z,3.33
2022-08-12T05:48:28.204Z,3.60
2022-08-12T05:53:30.203Z,4.75
2022-08-12T05:58:32.797Z,3.70
2022-08-12T06:03:35.109Z,3.40
2022-08-12T06:08:37.689Z,3.83
2022-08-12T06:13:53.196Z,4.53
2022-08-12T06:18:56.660Z,4.43
2022-08-12T06:23:58.680Z,4.30
2022-08-12T06:29:00.914Z,4.68
2022-08-12T06:35:22.555Z,4.03
2022-08-12T06:39:25.565Z,3.95
2022-08-12T06:44:27.704Z,4.30
2022-08-12T06:49:34.680Z,3.90
2022-08-12T06:54:36.684Z,3.63
2022-08-12T06:59:40.892Z,4.97
2022-08-12T07:04:43.297Z,4.18
2022-08-12T07:10:05.154Z,4.55
2022-08-12T07:15:07.943Z,4.07
2022-08-12T07:20:29.721Z,3.83
2022-08-12T07:25:37.504Z,3.58
2022-08-12T07:30:44.937Z,4.47
2022-08-12T07:35:47.724Z,4.20
2022-08-12T07:40:54.451Z,4.00
2022-08-12T07:45:58.695Z,4.50
2022-08-12T07:51:00.761Z,3.55
2022-08-12T07:56:04.957Z,4.20
2022-08-12T08:01:12.246Z,4.07
2022-08-12T08:06:19.926Z,4.20
2022-08-12T08:11:42.440Z,3.53
2022-08-12T08:16:46.316Z,3.80
2022-08-12T08:21:48.512Z,3.53
2022-08-12T08:26:53.363Z,3.53
2022-08-12T08:31:58.289Z,3.47
2022-08-12T08:37:00.371Z,3.35
2022-08-12T08:42:25.720Z,2.90
2022-08-12T08:47:27.741Z,2.97
2022-08-12T08:52:39.399Z,2.70
2022-08-12T08:57:45.182Z,3.25
2022-08-12T09:02:58.579Z,3.03
2022-08-12T09:13:28.996Z,3.08
2022-08-12T09:24:19.071Z,3.00
2022-08-12T09:30:09.820Z,2.85
2022-08-12T09:34:50.513Z,2.55
2022-08-12T09:40:05.339Z,2.58
2022-08-12T09:45:23.389Z,2.40
2022-08-12T09:50:27.351Z,2.30
2022-08-12T09:56:03.761Z,2.70
2022-08-12T10:00:52.949Z,2.47
2022-08-12T10:06:20.089Z,2.53
2022-08-12T10:12:07.788Z,2.67
2022-08-12T10:16:59.061Z,2.33
2022-08-12T10:22:01.563Z,2.60
2022-08-12T10:27:23.242Z,2.15
2022-08-12T10:32:45.500Z,2.38
2022-08-12T10:38:38.140Z,2.33
2022-08-12T10:43:28.283Z,2.53
2022-08-12T10:48:55.876Z,2.10
2022-08-12T10:54:08.321Z,2.40
2022-08-12T10:59:16.266Z,2.28
2022-08-12T11:04:35.430Z,2.30
2022-08-12T11:09:56.209Z,2.38
2022-08-12T11:15:18.696Z,2.30
2022-08-12T11:20:24.287Z,1.98
2022-08-12T11:25:42.400Z,2.40
2022-08-12T11:30:55.141Z,2.50
2022-08-12T11:36:11.847Z,2.30
2022-08-12T11:41:16.300Z,2.13
2022-08-12T11:46:30.542Z,2.55
2022-08-12T11:51:38.788Z,2.30
2022-08-12T11:56:43.809Z,1.95
2022-08-12T12:02:05.469Z,2.42
2022-08-12T12:07:11.271Z,2.50
2022-08-12T12:12:14.675Z,2.22
2022-08-12T12:17:17.452Z,1.90
2022-08-12T12:22:23.732Z,2.10
2022-08-12T12:28:05.636Z,2.22
2022-08-12T12:33:10.066Z,2.15
2022-08-12T12:38:20.646Z,2.10
2022-08-12T12:43:28.999Z,2.17
2022-08-12T12:48:44.875Z,2.30
2022-08-12T12:54:07.523Z,2.25
2022-08-12T12:59:55.528Z,2.00
2022-08-12T13:04:35.139Z,2.28
2022-08-12T13:09:39.616Z,2.20
2022-08-12T13:14:48.768Z,2.10
2022-08-12T13:19:54.491Z,1.70
2022-08-12T13:24:59.676Z,2.20
2022-08-12T13:30:04.411Z,2.30
2022-08-12T13:35:19.828Z,2.22
2022-08-12T13:40:40.911Z,2.10
2022-08-12T13:45:43.644Z,2.70
2022-08-12T13:50:46.736Z,1.92
2022-08-12T13:55:59.567Z,1.85
2022-08-12T14:01:05.742Z,2.45
2022-08-12T14:06:08.689Z,2.40
2022-08-12T14:11:19.016Z,1.95
2022-08-12T14:16:37.745Z,1.77
2022-08-12T14:21:59.640Z,2.10
2022-08-12T14:27:09.018Z,1.90
2022-08-12T14:32:16.557Z,2.28
2022-08-12T14:37:55.899Z,2.03
2022-08-12T14:42:41.879Z,2.13
2022-08-12T14:47:51.243Z,2.05
2022-08-12T14:58:16.916Z,2.10
2022-08-12T15:03:20.463Z,1.98
2022-08-12T15:08:26.967Z,1.95
2022-08-12T15:13:32.628Z,1.55
2022-08-12T15:18:34.648Z,2.00
2022-08-12T15:23:54.830Z,2.08
2022-08-12T15:28:57.729Z,1.58
2022-08-12T15:33:59.711Z,1.70
2022-08-12T15:39:01.701Z,1.80
2022-08-12T15:44:36.989Z,1.50
2022-08-12T15:49:26.630Z,1.73
2022-08-12T15:54:33.093Z,1.52
2022-08-12T16:00:03.800Z,1.50
2022-08-12T16:05:00.325Z,1.75
2022-08-12T16:10:06.647Z,1.73
2022-08-12T16:15:11.895Z,1.60
2022-08-12T16:20:21.735Z,1.50
2022-08-12T16:26:02.975Z,1.60
2022-08-12T16:30:55.157Z,1.67
2022-08-12T16:35:57.146Z,1.40
2022-08-12T16:40:59.748Z,2.00
2022-08-12T16:46:31.491Z,1.70
2022-08-12T16:51:29.490Z,1.45
2022-08-12T16:56:39.550Z,1.65
2022-08-12T17:01:57.468Z,1.90
2022-08-12T17:07:01.294Z,1.67
2022-08-12T17:12:04.274Z,4.68
2022-08-12T17:17:18.629Z,7.55
2022-08-12T17:22:30.357Z,2.72
2022-08-12T17:27:34.123Z,2.88
2022-08-12T17:32:37.434Z,6.10
2022-08-12T17:37:40.661Z,3.50
2022-08-12T17:42:47.267Z,2.47
2022-08-12T17:48:04.872Z,2.45
2022-08-12T17:53:10.667Z,1.88
2022-08-12T17:58:13.938Z,2.00
2022-08-12T18:04:05.054Z,1.80
2022-08-12T18:08:43.502Z,2.10
2022-08-12T18:13:56.729Z,2.33
2022-08-12T18:19:02.347Z,2.33
2022-08-12T18:24:05.056Z,1.90
2022-08-12T18:29:27.260Z,1.95
2022-08-12T18:34:45.190Z,2.05
2022-08-12T18:40:19.801Z,1.95
2022-08-12T18:45:28.235Z,2.17
2022-08-12T18:51:02.373Z,2.00
2022-08-12T18:56:32.671Z,1.80
2022-08-12T19:02:19.569Z,1.90
2022-08-12T19:06:53.661Z,2.20
2022-08-12T19:12:14.299Z,2.03
2022-08-12T19:17:22.557Z,1.67
2022-08-12T19:22:59.546Z,2.00
2022-08-12T19:28:05.452Z,2.07
2022-08-12T19:33:11.228Z,2.10
2022-08-12T19:38:16.358Z,2.05
2022-08-12T19:43:21.704Z,1.90
2022-08-12T19:48:27.780Z,2.03
2022-08-12T19:53:57.035Z,2.20
2022-08-12T19:59:19.101Z,2.20
2022-08-12T20:04:22.649Z,1.98
2022-08-12T20:09:24.797Z,1.60
2022-08-12T20:14:27.476Z,1.95
2022-08-12T20:20:05.500Z,2.00
2022-08-12T20:24:56.711Z,1.92
2022-08-12T20:29:59.432Z,1.80
2022-08-12T20:35:01.917Z,1.92
2022-08-12T20:40:12.591Z,1.80
2022-08-12T20:45:18.636Z,2.08
2022-08-12T20:50:22.712Z,1.70
2022-08-12T20:55:42.540Z,2.22
2022-08-12T21:00:45.251Z,1.85
2022-08-12T21:06:11.875Z,1.98
2022-08-12T21:11:22.143Z,2.20
2022-08-12T21:16:31.635Z,2.00
2022-08-12T21:21:40.397Z,2.00
2022-08-12T21:32:39.795Z,1.80
2022-08-12T21:37:27.283Z,2.17
2022-08-12T21:42:32.696Z,2.10
2022-08-12T21:47:35.795Z,1.95
2022-08-12T21:52:41.960Z,2.40
2022-08-12T21:57:51.425Z,2.47
2022-08-12T22:03:14.796Z,2.08
2022-08-12T22:08:22.362Z,1.92
2022-08-12T22:14:04.025Z,1.85
2022-08-12T22:18:50.777Z,1.98
2022-08-12T22:24:05.082Z,1.70
2022-08-12T22:29:26.779Z,1.90
2022-08-12T22:34:33.293Z,2.00
2022-08-12T22:39:35.533Z,2.10
2022-08-12T22:44:56.328Z,1.90
2022-08-12T22:49:59.669Z,2.10
2022-08-12T22:55:05.646Z,2.10
2022-08-12T23:00:23.443Z,1.98
2022-08-12T23:05:57.465Z,2.00
2022-08-12T23:10:48.351Z,2.10
2022-08-12T23:15:54.758Z,1.80
2022-08-12T23:20:57.332Z,2.13
2022-08-12T23:25:59.379Z,2.20
2022-08-12T23:31:04.642Z,1.77
2022-08-12T23:36:08.522Z,2.30
2022-08-12T23:41:25.603Z,2.13
2022-08-12T23:46:31.485Z,2.10
2022-08-12T23:51:36.367Z,1.90
2022-08-12T23:56:40.071Z,2.25
